Airfield :
LOGIN :

Register | Disclaimer

   EN    FR    IT 

 










Legend :    VFR   Marginal VFR   IFR   Intensive IFR   Very Intensive IFR
Visi :
Ceiling :
>= 8 km
>= 3000ft
5 to 8 km
1000 to 3000 ft
1500m to 5 km
500 to 1000 ft
800 to 1500m
200 to 500 ft
< 800m
< 200 ft
Symbols :   Thunderstorms  Fog  Heavy snow  Heavy precipitations  Wind > 20 kt
SIGMETs :     Misc.  Thunderstorms  Icing  Turbulence  Mountain Waves  Volcanic Ashes






- Airport Elevation : 333 ft


LIPL - Ghedi Brescia (Mil)

CURRENT METAR :
  • 120555Z 31002KT 7000 NSC 23/20 Q1016 RMK SKC VIS MIN 7000 WIND THR31 32001KT WIND THR13 32002KT WHT

EXPIRED METARs :
  • 120455Z 26001KT 7000 NSC 23/20 Q1015 RMK SKC VIS MIN 7000 WIND THR31 31001KT WIND THR13 21001KT WHT
  • 120355Z 24003KT CAVOK 23/20 Q1015 RMK SKC VIS MIN 9999 WIND THR31 22004KT WIND THR13 22003KT BLU

TAF TAF LIPL
Valid from the 12 at 06:00 until the 12 at 15:00 UTC


120500Z 1206/1215 VRB03KT 9999 FEW050
TEMPO 1206/1207 5000 BR



MET'MAP, your aeronautical weather chart ! - Copyright ORBIFLY December 2007 - Disclaimer

ORBIFLY MET'MAP TEAM :

Programming & Development : Alexandra Zaïnal
Concept & original design : Baudouin d'Aumeries
Assistance for programming : Marc-Olivier Méhu
Technical & hardware support : Manuel Goepfert

Contact : metmap@orbifly.com




SOURCES & CREDITS :

   NOAA